sensor_id;sensor_type;location;lat;lon;timestamp;pressure;altitude;pressure_sealevel;temperature;humidity
69127;BME280;56688;50.234;19.292;2023-05-24T00:00:03;98141.94;;;17.61;82.50
69127;BME280;56688;50.234;19.292;2023-05-24T00:02:51;98144.02;;;17.59;82.57
69127;BME280;56688;50.234;19.292;2023-05-24T00:05:18;98145.27;;;17.60;82.72
69127;BME280;56688;50.234;19.292;2023-05-24T00:07:45;98147.98;;;17.66;82.58
69127;BME280;56688;50.234;19.292;2023-05-24T00:10:12;98147.72;;;17.66;82.56
69127;BME280;56688;50.234;19.292;2023-05-24T00:12:39;98145.05;;;17.68;82.36
69127;BME280;56688;50.234;19.292;2023-05-24T00:15:07;98145.06;;;17.69;82.08
69127;BME280;56688;50.234;19.292;2023-05-24T00:17:34;98142.52;;;17.70;82.03
69127;BME280;56688;50.234;19.292;2023-05-24T00:20:09;98141.03;;;17.70;82.06
69127;BME280;56688;50.234;19.292;2023-05-24T00:22:38;98140.56;;;17.72;82.04
69127;BME280;56688;50.234;19.292;2023-05-24T00:25:06;98138.91;;;17.73;82.09
69127;BME280;56688;50.234;19.292;2023-05-24T00:27:33;98143.34;;;17.74;82.10
69127;BME280;56688;50.234;19.292;2023-05-24T00:30:03;98137.34;;;17.74;82.06
69127;BME280;56688;50.234;19.292;2023-05-24T00:32:30;98141.23;;;17.73;82.04
69127;BME280;56688;50.234;19.292;2023-05-24T00:34:57;98143.31;;;17.70;81.99
69127;BME280;56688;50.234;19.292;2023-05-24T00:37:24;98144.29;;;17.68;82.03
69127;BME280;56688;50.234;19.292;2023-05-24T00:39:52;98141.30;;;17.67;82.19
69127;BME280;56688;50.234;19.292;2023-05-24T00:42:19;98141.84;;;17.67;82.27
69127;BME280;56688;50.234;19.292;2023-05-24T00:44:46;98142.33;;;17.67;82.10
69127;BME280;56688;50.234;19.292;2023-05-24T00:47:12;98140.45;;;17.70;81.98
69127;BME280;56688;50.234;19.292;2023-05-24T00:49:39;98140.86;;;17.71;81.84
69127;BME280;56688;50.234;19.292;2023-05-24T00:52:07;98144.60;;;17.71;81.80
69127;BME280;56688;50.234;19.292;2023-05-24T00:54:34;98147.93;;;17.70;81.61
69127;BME280;56688;50.234;19.292;2023-05-24T00:57:01;98143.14;;;17.65;81.51
69127;BME280;56688;50.234;19.292;2023-05-24T00:59:29;98152.33;;;17.62;81.65
69127;BME280;56688;50.234;19.292;2023-05-24T01:01:56;98149.39;;;17.60;81.43
69127;BME280;56688;50.234;19.292;2023-05-24T01:04:23;98153.03;;;17.59;81.50
69127;BME280;56688;50.234;19.292;2023-05-24T01:07:05;98155.61;;;17.58;81.46
69127;BME280;56688;50.234;19.292;2023-05-24T01:14:52;98162.45;;;17.60;81.32
69127;BME280;56688;50.234;19.292;2023-05-24T01:17:30;98165.77;;;17.58;81.02
69127;BME280;56688;50.234;19.292;2023-05-24T01:20:04;98162.65;;;17.54;80.98
69127;BME280;56688;50.234;19.292;2023-05-24T01:27:49;98168.42;;;17.58;80.85
69127;BME280;56688;50.234;19.292;2023-05-24T01:30:16;98169.54;;;17.61;80.70
69127;BME280;56688;50.234;19.292;2023-05-24T01:32:43;98171.70;;;17.57;80.27
69127;BME280;56688;50.234;19.292;2023-05-24T01:35:11;98171.20;;;17.55;80.41
69127;BME280;56688;50.234;19.292;2023-05-24T01:37:38;98171.30;;;17.50;80.50
69127;BME280;56688;50.234;19.292;2023-05-24T01:40:06;98177.63;;;17.48;80.47
69127;BME280;56688;50.234;19.292;2023-05-24T01:42:44;98177.33;;;17.44;80.50
69127;BME280;56688;50.234;19.292;2023-05-24T01:45:18;98179.76;;;17.44;80.53
69127;BME280;56688;50.234;19.292;2023-05-24T01:50:34;98179.67;;;17.45;80.10
69127;BME280;56688;50.234;19.292;2023-05-24T01:53:06;98174.33;;;17.37;79.87
69127;BME280;56688;50.234;19.292;2023-05-24T01:55:36;98185.48;;;17.39;79.79
69127;BME280;56688;50.234;19.292;2023-05-24T01:58:04;98177.86;;;17.35;79.72
69127;BME280;56688;50.234;19.292;2023-05-24T02:00:32;98184.42;;;17.32;79.52
69127;BME280;56688;50.234;19.292;2023-05-24T02:03:00;98184.47;;;17.29;79.56
69127;BME280;56688;50.234;19.292;2023-05-24T02:05:31;98188.79;;;17.24;79.59
69127;BME280;56688;50.234;19.292;2023-05-24T02:07:58;98191.23;;;17.21;79.71
69127;BME280;56688;50.234;19.292;2023-05-24T02:10:25;98191.05;;;17.20;79.76
69127;BME280;56688;50.234;19.292;2023-05-24T02:12:52;98195.48;;;17.18;79.88
69127;BME280;56688;50.234;19.292;2023-05-24T02:15:19;98196.28;;;17.13;79.73
69127;BME280;56688;50.234;19.292;2023-05-24T02:17:47;98196.55;;;17.08;79.86
69127;BME280;56688;50.234;19.292;2023-05-24T02:20:14;98196.26;;;17.04;79.93
69127;BME280;56688;50.234;19.292;2023-05-24T02:22:43;98200.64;;;16.96;80.00
69127;BME280;56688;50.234;19.292;2023-05-24T02:25:10;98201.30;;;16.92;80.10
69127;BME280;56688;50.234;19.292;2023-05-24T02:27:37;98202.15;;;16.89;80.24
69127;BME280;56688;50.234;19.292;2023-05-24T02:30:05;98205.30;;;16.86;80.18
69127;BME280;56688;50.234;19.292;2023-05-24T02:32:33;98203.17;;;16.82;80.13
69127;BME280;56688;50.234;19.292;2023-05-24T02:35:00;98206.83;;;16.79;80.06
69127;BME280;56688;50.234;19.292;2023-05-24T02:37:27;98206.40;;;16.74;79.87
69127;BME280;56688;50.234;19.292;2023-05-24T02:39:54;98212.02;;;16.71;80.03
69127;BME280;56688;50.234;19.292;2023-05-24T02:42:21;98213.02;;;16.70;80.30
69127;BME280;56688;50.234;19.292;2023-05-24T02:44:49;98214.85;;;16.70;80.34
69127;BME280;56688;50.234;19.292;2023-05-24T02:47:18;98219.73;;;16.72;80.40
69127;BME280;56688;50.234;19.292;2023-05-24T02:49:45;98219.85;;;16.72;80.06
69127;BME280;56688;50.234;19.292;2023-05-24T02:52:12;98221.38;;;16.68;80.21
69127;BME280;56688;50.234;19.292;2023-05-24T02:54:40;98216.41;;;16.65;80.21
69127;BME280;56688;50.234;19.292;2023-05-24T02:57:07;98217.97;;;16.64;80.37
69127;BME280;56688;50.234;19.292;2023-05-24T02:59:34;98219.50;;;16.63;80.31
69127;BME280;56688;50.234;19.292;2023-05-24T03:02:01;98222.82;;;16.64;80.39
69127;BME280;56688;50.234;19.292;2023-05-24T03:04:29;98224.90;;;16.66;80.38
69127;BME280;56688;50.234;19.292;2023-05-24T03:06:56;98227.10;;;16.69;80.38
69127;BME280;56688;50.234;19.292;2023-05-24T03:09:22;98227.92;;;16.70;80.25
69127;BME280;56688;50.234;19.292;2023-05-24T03:11:50;98231.19;;;16.71;80.21
69127;BME280;56688;50.234;19.292;2023-05-24T03:14:19;98235.62;;;16.73;80.12
69127;BME280;56688;50.234;19.292;2023-05-24T03:16:49;98235.16;;;16.72;79.96
69127;BME280;56688;50.234;19.292;2023-05-24T03:19:17;98232.87;;;16.73;80.03
69127;BME280;56688;50.234;19.292;2023-05-24T03:21:44;98229.53;;;16.71;79.97
69127;BME280;56688;50.234;19.292;2023-05-24T03:24:11;98229.91;;;16.70;80.14
69127;BME280;56688;50.234;19.292;2023-05-24T03:26:39;98229.81;;;16.68;80.05
69127;BME280;56688;50.234;19.292;2023-05-24T03:29:07;98232.03;;;16.66;79.95
69127;BME280;56688;50.234;19.292;2023-05-24T03:31:37;98229.81;;;16.62;80.07
69127;BME280;56688;50.234;19.292;2023-05-24T03:34:04;98228.29;;;16.59;80.28
69127;BME280;56688;50.234;19.292;2023-05-24T03:36:32;98228.43;;;16.58;80.37
69127;BME280;56688;50.234;19.292;2023-05-24T03:38:59;98232.93;;;16.62;80.49
69127;BME280;56688;50.234;19.292;2023-05-24T03:41:27;98227.64;;;16.67;80.34
69127;BME280;56688;50.234;19.292;2023-05-24T03:43:57;98224.83;;;16.69;80.24
69127;BME280;56688;50.234;19.292;2023-05-24T03:46:25;98229.96;;;16.68;80.18
69127;BME280;56688;50.234;19.292;2023-05-24T03:48:53;98236.84;;;16.69;80.32
69127;BME280;56688;50.234;19.292;2023-05-24T03:51:20;98231.94;;;16.71;80.00
69127;BME280;56688;50.234;19.292;2023-05-24T03:53:50;98235.80;;;16.70;80.10
69127;BME280;56688;50.234;19.292;2023-05-24T03:56:16;98240.34;;;16.70;79.86
69127;BME280;56688;50.234;19.292;2023-05-24T03:58:43;98243.41;;;16.72;79.82
69127;BME280;56688;50.234;19.292;2023-05-24T04:01:10;98245.60;;;16.73;79.75
69127;BME280;56688;50.234;19.292;2023-05-24T04:03:55;98249.16;;;16.76;79.71
69127;BME280;56688;50.234;19.292;2023-05-24T04:06:23;98254.52;;;16.74;79.50
69127;BME280;56688;50.234;19.292;2023-05-24T04:08:56;98252.24;;;16.73;79.64
69127;BME280;56688;50.234;19.292;2023-05-24T04:11:24;98255.40;;;16.75;79.59
69127;BME280;56688;50.234;19.292;2023-05-24T04:13:56;98256.50;;;16.80;79.55
69127;BME280;56688;50.234;19.292;2023-05-24T04:16:26;98258.49;;;16.85;79.40
69127;BME280;56688;50.234;19.292;2023-05-24T04:18:55;98264.94;;;16.90;79.03
69127;BME280;56688;50.234;19.292;2023-05-24T04:21:22;98266.00;;;16.92;78.84
69127;BME280;56688;50.234;19.292;2023-05-24T04:23:50;98271.13;;;16.94;78.55
69127;BME280;56688;50.234;19.292;2023-05-24T04:26:17;98274.39;;;16.93;78.32
69127;BME280;56688;50.234;19.292;2023-05-24T04:28:44;98272.81;;;16.90;78.35
69127;BME280;56688;50.234;19.292;2023-05-24T04:31:13;98278.48;;;16.92;78.34
69127;BME280;56688;50.234;19.292;2023-05-24T04:33:41;98283.95;;;16.98;78.20
69127;BME280;56688;50.234;19.292;2023-05-24T04:36:08;98291.30;;;17.01;77.78
69127;BME280;56688;50.234;19.292;2023-05-24T04:38:38;98292.63;;;17.02;77.57
69127;BME280;56688;50.234;19.292;2023-05-24T04:41:06;98295.42;;;17.04;77.35
69127;BME280;56688;50.234;19.292;2023-05-24T04:43:33;98291.47;;;17.01;77.28
69127;BME280;56688;50.234;19.292;2023-05-24T04:46:00;98295.89;;;17.02;76.92
69127;BME280;56688;50.234;19.292;2023-05-24T04:48:28;98298.95;;;17.04;77.02
69127;BME280;56688;50.234;19.292;2023-05-24T04:50:56;98303.25;;;17.07;76.73
69127;BME280;56688;50.234;19.292;2023-05-24T04:53:24;98301.31;;;17.06;76.53
69127;BME280;56688;50.234;19.292;2023-05-24T04:55:51;98300.84;;;17.09;76.68
69127;BME280;56688;50.234;19.292;2023-05-24T04:58:18;98304.11;;;17.09;76.40
69127;BME280;56688;50.234;19.292;2023-05-24T05:00:45;98306.77;;;17.09;76.46
69127;BME280;56688;50.234;19.292;2023-05-24T05:03:12;98309.71;;;17.10;76.33
69127;BME280;56688;50.234;19.292;2023-05-24T05:05:39;98313.86;;;17.15;76.29
69127;BME280;56688;50.234;19.292;2023-05-24T05:08:06;98317.98;;;17.16;76.14
69127;BME280;56688;50.234;19.292;2023-05-24T05:10:34;98320.48;;;17.16;76.05
69127;BME280;56688;50.234;19.292;2023-05-24T05:13:01;98319.55;;;17.15;75.94
69127;BME280;56688;50.234;19.292;2023-05-24T05:15:28;98324.95;;;17.13;75.93
69127;BME280;56688;50.234;19.292;2023-05-24T05:17:55;98329.38;;;17.13;76.26
69127;BME280;56688;50.234;19.292;2023-05-24T05:20:23;98332.83;;;17.15;76.05
69127;BME280;56688;50.234;19.292;2023-05-24T05:22:50;98337.36;;;17.17;75.97
69127;BME280;56688;50.234;19.292;2023-05-24T05:25:17;98339.06;;;17.18;75.85
69127;BME280;56688;50.234;19.292;2023-05-24T05:27:44;98342.30;;;17.18;75.96
69127;BME280;56688;50.234;19.292;2023-05-24T05:30:11;98350.27;;;17.16;75.83
69127;BME280;56688;50.234;19.292;2023-05-24T05:32:39;98355.62;;;17.07;75.61
69127;BME280;56688;50.234;19.292;2023-05-24T05:35:06;98360.13;;;16.92;75.57
69127;BME280;56688;50.234;19.292;2023-05-24T05:37:33;98364.72;;;16.81;75.86
69127;BME280;56688;50.234;19.292;2023-05-24T05:40:00;98369.34;;;16.77;76.33
69127;BME280;56688;50.234;19.292;2023-05-24T05:42:27;98375.34;;;16.73;76.01
69127;BME280;56688;50.234;19.292;2023-05-24T05:44:54;98378.26;;;16.53;75.88
69127;BME280;56688;50.234;19.292;2023-05-24T05:47:21;98381.14;;;16.44;76.55
69127;BME280;56688;50.234;19.292;2023-05-24T05:49:48;98384.55;;;16.36;77.00
69127;BME280;56688;50.234;19.292;2023-05-24T05:52:15;98381.81;;;16.29;77.16
69127;BME280;56688;50.234;19.292;2023-05-24T05:54:43;98389.69;;;16.27;77.34
69127;BME280;56688;50.234;19.292;2023-05-24T05:57:09;98396.35;;;16.25;77.46
69127;BME280;56688;50.234;19.292;2023-05-24T05:59:37;98398.38;;;16.22;77.18
69127;BME280;56688;50.234;19.292;2023-05-24T06:02:04;98401.41;;;16.15;77.18
69127;BME280;56688;50.234;19.292;2023-05-24T06:04:33;98403.05;;;16.09;77.26
69127;BME280;56688;50.234;19.292;2023-05-24T06:07:00;98407.44;;;16.01;76.93
69127;BME280;56688;50.234;19.292;2023-05-24T06:09:27;98403.73;;;15.92;77.37
69127;BME280;56688;50.234;19.292;2023-05-24T06:11:53;98413.00;;;15.92;77.04
69127;BME280;56688;50.234;19.292;2023-05-24T06:14:20;98419.37;;;15.91;76.77
69127;BME280;56688;50.234;19.292;2023-05-24T06:16:48;98421.86;;;15.78;76.83
69127;BME280;56688;50.234;19.292;2023-05-24T06:19:15;98427.89;;;15.68;77.17
69127;BME280;56688;50.234;19.292;2023-05-24T06:21:43;98428.98;;;15.62;77.33
69127;BME280;56688;50.234;19.292;2023-05-24T06:24:14;98437.27;;;15.55;77.46
69127;BME280;56688;50.234;19.292;2023-05-24T06:26:46;98442.00;;;15.51;77.70
69127;BME280;56688;50.234;19.292;2023-05-24T06:29:14;98445.63;;;15.48;77.53
69127;BME280;56688;50.234;19.292;2023-05-24T06:31:41;98453.91;;;15.43;77.53
69127;BME280;56688;50.234;19.292;2023-05-24T06:34:09;98457.24;;;15.36;77.64
69127;BME280;56688;50.234;19.292;2023-05-24T06:36:36;98460.69;;;15.34;77.82
69127;BME280;56688;50.234;19.292;2023-05-24T06:39:09;98464.02;;;15.34;77.92
69127;BME280;56688;50.234;19.292;2023-05-24T06:41:36;98465.49;;;15.35;77.77
69127;BME280;56688;50.234;19.292;2023-05-24T06:44:05;98468.52;;;15.35;77.70
69127;BME280;56688;50.234;19.292;2023-05-24T06:46:33;98472.03;;;15.29;77.38
69127;BME280;56688;50.234;19.292;2023-05-24T06:49:00;98471.45;;;15.24;77.81
69127;BME280;56688;50.234;19.292;2023-05-24T06:51:27;98473.64;;;15.20;77.88
69127;BME280;56688;50.234;19.292;2023-05-24T06:53:54;98478.09;;;15.16;78.02
69127;BME280;56688;50.234;19.292;2023-05-24T06:56:22;98482.95;;;15.08;78.16
69127;BME280;56688;50.234;19.292;2023-05-24T06:58:49;98482.79;;;15.04;78.54
69127;BME280;56688;50.234;19.292;2023-05-24T07:01:16;98487.33;;;15.05;79.05
69127;BME280;56688;50.234;19.292;2023-05-24T07:03:44;98487.41;;;15.04;79.08
69127;BME280;56688;50.234;19.292;2023-05-24T07:06:11;98491.98;;;14.95;78.62
69127;BME280;56688;50.234;19.292;2023-05-24T07:08:40;98492.65;;;14.85;78.73
69127;BME280;56688;50.234;19.292;2023-05-24T07:11:09;98498.56;;;14.80;79.14
69127;BME280;56688;50.234;19.292;2023-05-24T07:13:36;98502.70;;;14.79;79.39
69127;BME280;56688;50.234;19.292;2023-05-24T07:16:05;98507.83;;;14.75;79.25
69127;BME280;56688;50.234;19.292;2023-05-24T07:18:32;98508.71;;;14.73;79.60
69127;BME280;56688;50.234;19.292;2023-05-24T07:20:59;98513.57;;;14.75;79.75
69127;BME280;56688;50.234;19.292;2023-05-24T07:23:26;98516.23;;;14.78;79.70
69127;BME280;56688;50.234;19.292;2023-05-24T07:25:53;98517.44;;;14.78;79.52
69127;BME280;56688;50.234;19.292;2023-05-24T07:28:20;98517.88;;;14.73;79.33
69127;BME280;56688;50.234;19.292;2023-05-24T07:30:47;98519.77;;;14.68;79.59
69127;BME280;56688;50.234;19.292;2023-05-24T07:33:15;98519.00;;;14.65;79.74
69127;BME280;56688;50.234;19.292;2023-05-24T07:35:42;98518.94;;;14.69;79.89
69127;BME280;56688;50.234;19.292;2023-05-24T07:38:11;98517.71;;;14.66;79.58
69127;BME280;56688;50.234;19.292;2023-05-24T07:40:38;98521.23;;;14.65;79.67
69127;BME280;56688;50.234;19.292;2023-05-24T07:43:05;98534.02;;;14.65;79.46
69127;BME280;56688;50.234;19.292;2023-05-24T07:45:32;98533.98;;;14.65;79.39
69127;BME280;56688;50.234;19.292;2023-05-24T07:47:59;98536.42;;;14.65;79.14
69127;BME280;56688;50.234;19.292;2023-05-24T07:50:27;98541.35;;;14.61;79.47
69127;BME280;56688;50.234;19.292;2023-05-24T07:52:55;98540.35;;;14.62;79.44
69127;BME280;56688;50.234;19.292;2023-05-24T07:55:22;98546.70;;;14.69;79.50
69127;BME280;56688;50.234;19.292;2023-05-24T07:57:49;98548.64;;;14.77;79.09
69127;BME280;56688;50.234;19.292;2023-05-24T08:00:17;98548.46;;;14.81;78.97
69127;BME280;56688;50.234;19.292;2023-05-24T08:02:45;98549.62;;;14.89;79.00
69127;BME280;56688;50.234;19.292;2023-05-24T08:05:13;98550.58;;;14.95;78.73
69127;BME280;56688;50.234;19.292;2023-05-24T08:07:41;98551.80;;;14.99;78.20
69127;BME280;56688;50.234;19.292;2023-05-24T08:10:08;98556.36;;;14.99;77.93
69127;BME280;56688;50.234;19.292;2023-05-24T08:12:38;98557.63;;;15.01;78.10
69127;BME280;56688;50.234;19.292;2023-05-24T08:15:06;98566.09;;;15.12;78.25
69127;BME280;56688;50.234;19.292;2023-05-24T08:17:33;98569.22;;;15.20;77.71
69127;BME280;56688;50.234;19.292;2023-05-24T08:20:00;98573.87;;;15.28;77.71
69127;BME280;56688;50.234;19.292;2023-05-24T08:22:27;98572.29;;;15.37;77.26
69127;BME280;56688;50.234;19.292;2023-05-24T08:24:54;98573.44;;;15.39;76.42
69127;BME280;56688;50.234;19.292;2023-05-24T08:27:21;98575.98;;;15.48;76.39
69127;BME280;56688;50.234;19.292;2023-05-24T08:29:48;98579.61;;;15.56;75.64
69127;BME280;56688;50.234;19.292;2023-05-24T08:32:15;98582.08;;;15.63;75.41
69127;BME280;56688;50.234;19.292;2023-05-24T08:34:42;98585.21;;;15.75;75.15
69127;BME280;56688;50.234;19.292;2023-05-24T08:37:10;98587.98;;;15.82;74.16
69127;BME280;56688;50.234;19.292;2023-05-24T08:39:39;98596.04;;;15.75;73.46
69127;BME280;56688;50.234;19.292;2023-05-24T08:42:06;98598.36;;;15.67;73.65
69127;BME280;56688;50.234;19.292;2023-05-24T08:44:47;98600.05;;;15.66;74.25
69127;BME280;56688;50.234;19.292;2023-05-24T08:47:19;98602.17;;;15.68;74.37
69127;BME280;56688;50.234;19.292;2023-05-24T08:49:49;98612.59;;;15.72;73.79
69127;BME280;56688;50.234;19.292;2023-05-24T08:52:17;98612.70;;;15.69;73.69
69127;BME280;56688;50.234;19.292;2023-05-24T08:54:45;98614.05;;;15.66;73.18
69127;BME280;56688;50.234;19.292;2023-05-24T08:57:15;98618.75;;;15.58;73.34
69127;BME280;56688;50.234;19.292;2023-05-24T08:59:42;98623.40;;;15.57;73.16
69127;BME280;56688;50.234;19.292;2023-05-24T09:02:13;98628.93;;;15.46;72.75
69127;BME280;56688;50.234;19.292;2023-05-24T09:04:41;98631.08;;;15.43;73.44
69127;BME280;56688;50.234;19.292;2023-05-24T09:07:12;98633.27;;;15.46;73.45
69127;BME280;56688;50.234;19.292;2023-05-24T09:09:42;98634.85;;;15.49;73.27
69127;BME280;56688;50.234;19.292;2023-05-24T09:12:15;98639.37;;;15.49;73.00
69127;BME280;56688;50.234;19.292;2023-05-24T09:15:02;98643.20;;;15.43;73.06
69127;BME280;56688;50.234;19.292;2023-05-24T09:17:30;98644.11;;;15.37;72.99
69127;BME280;56688;50.234;19.292;2023-05-24T09:19:59;98649.16;;;15.33;73.33
69127;BME280;56688;50.234;19.292;2023-05-24T09:22:28;98651.88;;;15.33;73.08
69127;BME280;56688;50.234;19.292;2023-05-24T09:24:57;98653.92;;;15.27;73.01
69127;BME280;56688;50.234;19.292;2023-05-24T09:27:26;98658.73;;;15.21;73.02
69127;BME280;56688;50.234;19.292;2023-05-24T09:29:54;98662.99;;;15.16;73.50
69127;BME280;56688;50.234;19.292;2023-05-24T09:32:23;98666.52;;;15.17;73.55
69127;BME280;56688;50.234;19.292;2023-05-24T09:34:51;98670.05;;;15.15;73.86
69127;BME280;56688;50.234;19.292;2023-05-24T09:37:21;98674.09;;;15.19;73.87
69127;BME280;56688;50.234;19.292;2023-05-24T09:39:56;98671.73;;;15.19;73.19
69127;BME280;56688;50.234;19.292;2023-05-24T09:42:25;98672.23;;;15.18;73.34
69127;BME280;56688;50.234;19.292;2023-05-24T09:45:02;98674.30;;;15.20;73.14
69127;BME280;56688;50.234;19.292;2023-05-24T09:47:33;98673.17;;;15.16;72.72
69127;BME280;56688;50.234;19.292;2023-05-24T09:50:02;98673.38;;;15.11;72.61
69127;BME280;56688;50.234;19.292;2023-05-24T09:52:29;98671.45;;;15.07;73.01
69127;BME280;56688;50.234;19.292;2023-05-24T09:54:59;98680.02;;;15.15;73.08
69127;BME280;56688;50.234;19.292;2023-05-24T09:57:26;98682.16;;;15.16;72.39
69127;BME280;56688;50.234;19.292;2023-05-24T09:59:53;98680.02;;;15.18;72.39
69127;BME280;56688;50.234;19.292;2023-05-24T10:02:21;98683.61;;;15.20;72.08
69127;BME280;56688;50.234;19.292;2023-05-24T10:04:58;98686.30;;;15.21;72.07
69127;BME280;56688;50.234;19.292;2023-05-24T10:07:27;98685.41;;;15.24;72.12
69127;BME280;56688;50.234;19.292;2023-05-24T10:09:55;98686.11;;;15.36;72.37
69127;BME280;56688;50.234;19.292;2023-05-24T10:12:22;98684.91;;;15.44;71.57
69127;BME280;56688;50.234;19.292;2023-05-24T10:14:51;98690.20;;;15.59;71.61
69127;BME280;56688;50.234;19.292;2023-05-24T10:17:19;98693.76;;;15.74;70.89
69127;BME280;56688;50.234;19.292;2023-05-24T10:19:46;98697.81;;;15.82;70.13
69127;BME280;56688;50.234;19.292;2023-05-24T10:22:14;98697.98;;;15.89;69.65
69127;BME280;56688;50.234;19.292;2023-05-24T10:24:45;98697.68;;;15.84;69.07
69127;BME280;56688;50.234;19.292;2023-05-24T10:27:15;98700.94;;;15.81;69.09
69127;BME280;56688;50.234;19.292;2023-05-24T10:29:53;98701.73;;;15.87;69.70
69127;BME280;56688;50.234;19.292;2023-05-24T10:32:25;98706.41;;;15.92;68.95
69127;BME280;56688;50.234;19.292;2023-05-24T10:34:58;98699.69;;;15.86;68.71
69127;BME280;56688;50.234;19.292;2023-05-24T10:37:26;98707.19;;;15.89;68.32
69127;BME280;56688;50.234;19.292;2023-05-24T10:39:53;98707.26;;;15.83;68.52
69127;BME280;56688;50.234;19.292;2023-05-24T10:42:20;98706.20;;;15.82;68.38
69127;BME280;56688;50.234;19.292;2023-05-24T10:44:47;98707.19;;;15.74;68.35
69127;BME280;56688;50.234;19.292;2023-05-24T10:47:14;98707.16;;;15.66;68.55
69127;BME280;56688;50.234;19.292;2023-05-24T10:49:51;98707.91;;;15.63;68.71
69127;BME280;56688;50.234;19.292;2023-05-24T10:52:19;98709.90;;;15.71;69.08
69127;BME280;56688;50.234;19.292;2023-05-24T10:57:30;98711.96;;;16.04;68.53
69127;BME280;56688;50.234;19.292;2023-05-24T11:08:12;98711.68;;;16.60;66.04
69127;BME280;56688;50.234;19.292;2023-05-24T11:10:39;98709.95;;;16.73;66.05
69127;BME280;56688;50.234;19.292;2023-05-24T11:13:10;98713.70;;;16.90;65.26
69127;BME280;56688;50.234;19.292;2023-05-24T11:15:37;98713.91;;;17.04;64.78
69127;BME280;56688;50.234;19.292;2023-05-24T11:20:35;98715.25;;;17.33;64.49
69127;BME280;56688;50.234;19.292;2023-05-24T11:23:04;98720.89;;;17.34;62.99
69127;BME280;56688;50.234;19.292;2023-05-24T11:25:32;98722.15;;;17.25;63.18
69127;BME280;56688;50.234;19.292;2023-05-24T11:28:05;98719.69;;;17.24;63.23
69127;BME280;56688;50.234;19.292;2023-05-24T11:30:32;98718.59;;;17.23;63.06
69127;BME280;56688;50.234;19.292;2023-05-24T11:32:59;98717.47;;;17.28;63.16
69127;BME280;56688;50.234;19.292;2023-05-24T11:35:27;98715.86;;;17.34;62.75
69127;BME280;56688;50.234;19.292;2023-05-24T11:37:56;98716.44;;;17.41;62.71
69127;BME280;56688;50.234;19.292;2023-05-24T11:40:23;98714.52;;;17.38;62.54
69127;BME280;56688;50.234;19.292;2023-05-24T11:42:51;98717.11;;;17.47;63.82
69127;BME280;56688;50.234;19.292;2023-05-24T11:45:18;98715.78;;;17.62;63.62
69127;BME280;56688;50.234;19.292;2023-05-24T11:47:47;98713.23;;;17.78;62.47
69127;BME280;56688;50.234;19.292;2023-05-24T11:50:22;98715.31;;;17.83;61.38
69127;BME280;56688;50.234;19.292;2023-05-24T11:52:52;98715.91;;;17.88;61.15
69127;BME280;56688;50.234;19.292;2023-05-24T11:55:26;98719.17;;;18.01;61.49
69127;BME280;56688;50.234;19.292;2023-05-24T11:57:57;98721.35;;;18.20;61.78
69127;BME280;56688;50.234;19.292;2023-05-24T12:00:25;98723.08;;;18.33;60.48
69127;BME280;56688;50.234;19.292;2023-05-24T12:02:56;98723.00;;;18.43;59.62
69127;BME280;56688;50.234;19.292;2023-05-24T12:05:27;98717.14;;;18.33;59.43
69127;BME280;56688;50.234;19.292;2023-05-24T12:08:01;98718.88;;;18.27;59.85
69127;BME280;56688;50.234;19.292;2023-05-24T12:10:32;98718.81;;;18.24;59.60
69127;BME280;56688;50.234;19.292;2023-05-24T12:13:02;98719.29;;;18.07;59.61
69127;BME280;56688;50.234;19.292;2023-05-24T12:15:30;98720.22;;;17.95;60.10
69127;BME280;56688;50.234;19.292;2023-05-24T12:17:57;98716.74;;;17.80;60.33
69127;BME280;56688;50.234;19.292;2023-05-24T12:20:26;98719.39;;;17.63;60.60
69127;BME280;56688;50.234;19.292;2023-05-24T12:22:54;98718.55;;;17.60;61.72
69127;BME280;56688;50.234;19.292;2023-05-24T12:25:22;98719.19;;;17.65;61.63
69127;BME280;56688;50.234;19.292;2023-05-24T12:27:53;98721.00;;;17.61;61.26
69127;BME280;56688;50.234;19.292;2023-05-24T12:30:23;98721.35;;;17.54;61.67
69127;BME280;56688;50.234;19.292;2023-05-24T12:33:06;98725.09;;;17.56;62.07
69127;BME280;56688;50.234;19.292;2023-05-24T12:35:33;98724.31;;;17.56;60.96
69127;BME280;56688;50.234;19.292;2023-05-24T12:38:00;98724.34;;;17.57;61.66
69127;BME280;56688;50.234;19.292;2023-05-24T12:40:31;98719.63;;;17.67;62.31
69127;BME280;56688;50.234;19.292;2023-05-24T12:42:59;98716.98;;;17.79;61.15
69127;BME280;56688;50.234;19.292;2023-05-24T12:45:26;98718.85;;;17.92;61.48
69127;BME280;56688;50.234;19.292;2023-05-24T12:47:54;98718.44;;;18.09;61.89
69127;BME280;56688;50.234;19.292;2023-05-24T12:50:23;98715.54;;;18.26;61.37
69127;BME280;56688;50.234;19.292;2023-05-24T12:52:51;98717.98;;;18.37;60.12
69127;BME280;56688;50.234;19.292;2023-05-24T12:55:22;98721.06;;;18.37;60.97
69127;BME280;56688;50.234;19.292;2023-05-24T12:57:53;98718.29;;;18.47;60.58
69127;BME280;56688;50.234;19.292;2023-05-24T13:00:23;98716.73;;;18.52;59.70
69127;BME280;56688;50.234;19.292;2023-05-24T13:02:54;98720.01;;;18.51;60.36
69127;BME280;56688;50.234;19.292;2023-05-24T13:05:25;98722.73;;;18.54;60.15
69127;BME280;56688;50.234;19.292;2023-05-24T13:07:54;98720.12;;;18.36;58.82
69127;BME280;56688;50.234;19.292;2023-05-24T13:10:23;98720.30;;;18.23;59.25
69127;BME280;56688;50.234;19.292;2023-05-24T13:12:50;98726.40;;;18.18;59.95
69127;BME280;56688;50.234;19.292;2023-05-24T13:15:17;98724.85;;;18.09;59.84
69127;BME280;56688;50.234;19.292;2023-05-24T13:17:45;98720.73;;;17.88;59.79
69127;BME280;56688;50.234;19.292;2023-05-24T13:20:13;98716.61;;;17.70;60.29
69127;BME280;56688;50.234;19.292;2023-05-24T13:22:40;98720.25;;;17.51;60.89